Andrews Air Force Base
KADW : now visible

Airfield :











YOU CAN JOIN US ON...

 
LOGIN :

Register | Disclaimer

   EN    FR    IT 

 









Legend :    VFR   Marginal VFR   IFR   Intensive IFR   Very Intensive IFR
Visi :
Ceiling :
>= 8 km
>= 3000ft
5 to 8 km
1000 to 3000 ft
1500m to 5 km
500 to 1000 ft
800 to 1500m
200 to 500 ft
< 800m
< 200 ft
Symbols :   Thunderstorms  Fog  Heavy snow  Heavy precipitations  Wind > 20 kt






- Airport Elevation : 280 ft


KADW - Andrews Air Force Base

CURRENT METAR :
  • 260426Z 17007KT 10SM VCTS -RA SCT014 BKN040 22/19 A2984 RMK DZB03E09DZB14E20RAB20 TSB03E19 SLP109 $

EXPIRED METARs :
  • 260403Z 00000KT 10SM TS -DZ BKN060 24/18 A2984 RMK AO2A DZB03 TSB03 PRESFR SLP109 $
  • 260318Z VRB03KT 10SM VCTS SCT060 BKN110 23/18 A2986 RMK LTG DSNT W-NW SLP116 $
  • 260305Z 15003KT 10SM FEW095 23/18 A2985 RMK LTG DSNT NW SLP112 $
  • 260255Z AUTO 00000KT 10SM FEW095 23/18 A2985 RMK AO2 LTG DSNT NW DZB0157E12 SLP112 P0000 60000 T02290178 52018 $
  • 260212Z AUTO 18003KT 10SM VCTS FEW060 FEW120 23/18 A2984 RMK AO2 DZB0157E12 SLP109 $
  • 260157Z AUTO 18004KT 10SM -DZ FEW120 24/17 A2984 RMK AO2 LTG DSNT SW DZB57 SLP109 $
  • 260155Z AUTO 17005KT 10SM FEW120 24/17 A2984 RMK AO2 LTG DSNT SW SLP109 T02350170 $
  • 260055Z AUTO 16006KT 10SM SCT130 24/16 A2982 RMK AO2 SLP102 T02410163 $
  • 252355Z AUTO 16007KT 10SM CLR 25/17 A2980 RMK AO2 SLP096 T02520169 10305 20252 53003 $

TAF AMD TAF KADW
Valid from the 26 at 02:00 until the 27 at 07:00 UTC


260233Z 2602/2707 16010KT 8000 -SHRA VCTS SCT070 BKN090CB BKN150 QNH2981INS
TEMPO 2602/2605 VRB15G28KT 4800 -TSRA BKN060CB
BECMG 2604/2605 18007KT 9999 NSW FEW060 SCT090 BKN150 QNH2981INS
BECMG 2607/2608 20003KT 6000 BR FEW060 SCT150 QNH2981INS
BECMG 2609/2610 27003KT 9999 NSW FEW100 FEW150 QNH2983INS
BECMG 2615/2616 06006KT 9999 SCT040 SCT100 QNH2985INS
BECMG 2618/2619 11006KT 9999 VCTS SCT040CB BKN100 QNH2983INS
BECMG 2621/2622 14006KT 9999 NSW FEW040 SCT100 QNH2981INS
BECMG 2706/2707 16010KT 9999 BKN018 BKN040 QNH2981INS TX31/2620Z TN19/2609Z
KZDC FIR / North America



MET'MAP, your aeronautical weather chart ! - Copyright ORBIFLY December 2007 - Disclaimer

ORBIFLY MET'MAP TEAM :

Programming & Development : Alexandra Zaïnal
Original concept : Baudouin d'Aumeries
Technical & hardware support : Manuel Goepfert
Assistance : Marc-Olivier Méhu




SOURCES & CREDITS :

   NOAA       Earth
Advisory